Time;durP1;ratioP1;P1;durP2;ratioP2;P2;SDS_P1;SDS_P2;PMS_P1;PMS_P2;Temp;Humidity;BMP_temperature;BMP_pressure;BME280_temperature;BME280_humidity;BME280_pressure;Samples;Min_cycle;Max_cycle;Signal;HPM_P1;HPM_P2
2022/10/19 00:00:19;;;;;;;18.23;11.60;;;;;;;5.54;100.00;102927.66;5034633;28;20040;-76
2022/10/19 00:02:44;;;;;;;19.35;12.30;;;;;;;5.49;100.00;102919.16;5034744;28;20044;-77
2022/10/19 00:05:10;;;;;;;18.70;11.25;;;;;;;5.44;100.00;102911.50;5034736;28;20072;-77
2022/10/19 00:07:35;;;;;;;19.40;10.10;;;;;;;5.28;100.00;102883.47;5034496;28;20021;-78
2022/10/19 00:10:00;;;;;;;18.55;10.63;;;;;;;5.41;100.00;102906.44;5032369;28;20133;-79
2022/10/19 00:12:26;;;;;;;22.75;11.52;;;;;;;5.51;100.00;102914.03;5034533;28;20040;-77
2022/10/19 00:14:51;;;;;;;28.30;11.40;;;;;;;5.50;100.00;102886.69;5034294;28;20457;-78
2022/10/19 00:17:16;;;;;;;24.63;12.38;;;;;;;5.54;100.00;102890.94;5034618;28;20061;-78
2022/10/19 00:19:41;;;;;;;35.55;12.65;;;;;;;5.83;100.00;102900.91;5034489;28;20055;-78
2022/10/19 00:22:07;;;;;;;33.08;14.23;;;;;;;5.90;100.00;102900.88;5034292;28;20034;-79
2022/10/19 00:24:32;;;;;;;36.67;14.30;;;;;;;6.02;100.00;102900.75;5034174;28;20041;-78
2022/10/19 00:26:58;;;;;;;35.30;14.98;;;;;;;6.08;100.00;102904.09;5034513;28;20432;-78
2022/10/19 00:29:23;;;;;;;30.42;13.65;;;;;;;6.03;100.00;102899.88;5034026;28;20496;-78
2022/10/19 00:31:49;;;;;;;31.58;14.75;;;;;;;6.13;100.00;102910.88;5033976;28;20025;-78
2022/10/19 00:34:15;;;;;;;30.85;14.55;;;;;;;6.01;100.00;102881.09;5034050;28;20209;-78
2022/10/19 00:36:40;;;;;;;32.45;14.60;;;;;;;6.22;100.00;102900.53;5034127;28;20134;-78
2022/10/19 00:39:09;;;;;;;34.25;15.38;;;;;;;6.09;100.00;102870.72;5033785;28;20026;-78
2022/10/19 00:41:36;;;;;;;33.95;15.98;;;;;;;5.90;100.00;102853.81;5033998;28;20026;-77
2022/10/19 00:44:10;;;;;;;33.60;15.23;;;;;;;6.19;100.00;102894.56;5033754;28;20033;-79
2022/10/19 00:46:38;;;;;;;33.88;15.48;;;;;;;6.12;100.00;102883.53;5033685;28;20037;-77
2022/10/19 00:49:11;;;;;;;41.60;14.68;;;;;;;6.09;100.00;102882.69;5033136;28;20026;-78
2022/10/19 00:51:40;;;;;;;34.95;14.90;;;;;;;6.21;100.00;102901.38;5033479;28;20083;-79
2022/10/19 00:54:08;;;;;;;33.67;15.48;;;;;;;6.14;100.00;102884.38;5033883;28;20083;-78
2022/10/19 00:56:34;;;;;;;38.08;15.68;;;;;;;6.31;100.00;102897.84;5033804;28;20029;-78
2022/10/19 00:59:03;;;;;;;32.08;14.68;;;;;;;6.29;100.00;102901.28;5033580;28;20026;-78
2022/10/19 01:01:29;;;;;;;31.42;14.95;;;;;;;6.05;100.00;102876.78;5033294;28;20037;-79
2022/10/19 01:03:55;;;;;;;30.30;14.10;;;;;;;6.14;100.00;102901.47;5033404;28;20032;-78
2022/10/19 01:06:22;;;;;;;31.58;14.52;;;;;;;6.17;100.00;102899.72;5033293;28;20021;-78
2022/10/19 01:08:47;;;;;;;29.08;13.07;;;;;;;6.04;100.00;102901.56;5033488;28;20528;-79
2022/10/19 01:11:13;;;;;;;35.70;15.55;;;;;;;6.03;100.00;102899.88;5033300;28;20160;-78
2022/10/19 01:13:53;;;;;;;39.15;15.65;;;;;;;5.82;100.00;102860.75;5033412;28;20040;-79
2022/10/19 01:16:49;;;;;;;28.20;13.50;;;;;;;5.98;100.00;102895.66;5033325;28;20032;-79
2022/10/19 01:19:40;;;;;;;33.80;14.38;;;;;;;5.98;100.00;102898.22;5033415;28;20055;-79
2022/10/19 01:22:17;;;;;;;32.60;15.35;;;;;;;5.96;100.00;102892.25;5033350;28;20041;-78
2022/10/19 01:25:07;;;;;;;27.52;14.10;;;;;;;5.92;100.00;102893.16;5033264;28;20026;-78
2022/10/19 01:27:42;;;;;;;37.70;15.10;;;;;;;5.96;100.00;102887.13;5032998;28;20033;-79
2022/10/19 01:30:12;;;;;;;40.83;14.13;;;;;;;5.87;100.00;102890.59;5033478;28;20069;-78
2022/10/19 01:33:07;;;;;;;30.48;14.57;;;;;;;5.80;100.00;102888.09;5033079;28;20087;-78
2022/10/19 01:35:49;;;;;;;32.03;14.05;;;;;;;5.78;100.00;102889.84;5033074;28;20084;-78
2022/10/19 01:38:24;;;;;;;36.88;14.48;;;;;;;5.80;100.00;102886.44;5033188;28;20112;-78
2022/10/19 01:40:57;;;;;;;37.45;16.42;;;;;;;5.66;100.00;102865.19;5032968;28;20385;-79
2022/10/19 01:43:45;;;;;;;37.75;14.80;;;;;;;5.70;100.00;102890.78;5033279;28;20037;-79
2022/10/19 01:46:21;;;;;;;32.72;14.23;;;;;;;5.49;100.00;102867.91;4952375;29;20059;-78
2022/10/19 01:48:55;;;;;;;32.33;13.70;;;;;;;5.60;100.00;102883.19;4952768;29;20412;-79
2022/10/19 01:51:28;;;;;;;30.08;13.52;;;;;;;5.48;100.00;102879.88;4952861;29;20415;-78
2022/10/19 01:53:59;;;;;;;33.83;14.63;;;;;;;5.37;100.00;102861.19;4952871;29;20035;-78
2022/10/19 01:56:27;;;;;;;25.33;13.15;;;;;;;5.46;100.00;102878.19;4952874;29;20027;-77
2022/10/19 01:58:56;;;;;;;26.98;12.85;;;;;;;5.43;100.00;102886.75;4952785;29;20027;-77
2022/10/19 02:01:24;;;;;;;26.75;12.73;;;;;;;5.43;100.00;102884.19;4956577;29;20044;-79
2022/10/19 02:03:51;;;;;;;25.88;13.27;;;;;;;5.32;100.00;102882.59;4956753;29;20439;-78
2022/10/19 02:06:17;;;;;;;25.08;13.20;;;;;;;5.33;100.00;102872.34;4956831;29;20027;-78
2022/10/19 02:08:45;;;;;;;28.02;14.80;;;;;;;5.33;100.00;102866.34;4956445;29;20054;-78
2022/10/19 02:11:10;;;;;;;29.58;13.75;;;;;;;5.31;100.00;102862.94;4954439;29;20051;-78
2022/10/19 02:13:38;;;;;;;30.48;14.52;;;;;;;5.23;100.00;102850.22;4956487;29;20051;-79
2022/10/19 02:16:06;;;;;;;24.63;13.15;;;;;;;5.23;100.00;102860.47;4956490;29;20248;-78
2022/10/19 02:18:37;;;;;;;28.30;13.02;;;;;;;5.19;100.00;102861.31;4956204;29;20384;-78
2022/10/19 02:21:04;;;;;;;23.50;13.13;;;;;;;4.99;100.00;102827.34;4956251;29;20093;-78
2022/10/19 02:23:29;;;;;;;27.10;12.75;;;;;;;5.07;100.00;102844.34;5005739;28;20045;-77
2022/10/19 02:25:55;;;;;;;24.98;13.00;;;;;;;5.08;100.00;102847.75;5036518;28;20017;-78
2022/10/19 02:28:21;;;;;;;23.38;12.93;;;;;;;5.08;100.00;102847.75;5036503;28;20040;-79
2022/10/19 02:30:47;;;;;;;25.73;13.40;;;;;;;5.03;100.00;102841.84;5036450;28;20033;-78
2022/10/19 02:33:13;;;;;;;30.85;14.40;;;;;;;4.95;100.00;102818.00;5036355;28;20039;-78
2022/10/19 02:35:39;;;;;;;27.00;14.52;;;;;;;5.01;100.00;102820.50;5036246;28;20029;-78
2022/10/19 02:38:07;;;;;;;30.52;13.35;;;;;;;5.04;100.00;102823.06;5036404;28;20075;-78
2022/10/19 02:40:38;;;;;;;32.20;15.13;;;;;;;5.03;100.00;102826.47;5036222;28;20361;-77
2022/10/19 02:43:10;;;;;;;29.02;14.38;;;;;;;5.03;100.00;102821.34;5036012;28;20025;-78
2022/10/19 02:45:42;;;;;;;30.60;14.25;;;;;;;5.05;100.00;102819.63;5036327;28;20121;-78
2022/10/19 02:48:13;;;;;;;36.50;15.05;;;;;;;5.06;100.00;102826.44;5018167;28;20028;-77
2022/10/19 02:50:43;;;;;;;28.73;14.15;;;;;;;4.91;100.00;102822.28;5036141;28;20022;-78
2022/10/19 02:53:08;;;;;;;26.23;13.40;;;;;;;4.84;100.00;102823.22;5035988;28;20026;-79
2022/10/19 02:55:34;;;;;;;26.17;13.27;;;;;;;4.81;100.00;102829.16;5035946;28;20049;-78
2022/10/19 02:57:59;;;;;;;29.13;14.20;;;;;;;4.78;100.00;102808.72;5035951;28;20034;-79
2022/10/19 03:00:24;;;;;;;35.28;14.95;;;;;;;4.95;100.00;102826.53;5036036;28;20061;-78
2022/10/19 03:02:50;;;;;;;35.85;15.82;;;;;;;4.91;100.00;102824.84;5035731;28;20535;-77
2022/10/19 03:05:15;;;;;;;32.95;14.35;;;;;;;4.71;100.00;102801.09;5035471;28;20022;-79
2022/10/19 03:07:41;;;;;;;27.80;13.15;;;;;;;4.84;100.00;102839.41;5035813;28;20029;-78
2022/10/19 03:10:07;;;;;;;27.75;14.20;;;;;;;4.83;100.00;102830.03;5035568;28;20065;-77
2022/10/19 03:12:32;;;;;;;33.80;14.77;;;;;;;4.71;100.00;102803.66;5034945;28;20068;-78
2022/10/19 03:14:58;;;;;;;26.67;13.65;;;;;;;4.76;100.00;102830.09;5035646;28;20487;-78
2022/10/19 03:17:23;;;;;;;31.23;12.82;;;;;;;4.72;100.00;102826.72;5035636;28;20044;-79
2022/10/19 03:19:48;;;;;;;35.25;15.60;;;;;;;4.72;100.00;102816.47;5035123;28;20029;-78
2022/10/19 03:22:14;;;;;;;31.67;14.70;;;;;;;4.75;100.00;102825.81;5035322;28;20030;-77
2022/10/19 03:24:39;;;;;;;38.08;15.45;;;;;;;4.75;100.00;102824.13;5035687;28;20025;-77
2022/10/19 03:27:04;;;;;;;31.13;14.85;;;;;;;4.65;100.00;102798.59;5035464;28;20029;-79
2022/10/19 03:29:30;;;;;;;43.88;17.13;;;;;;;4.77;100.00;102817.28;5035458;28;20025;-79
2022/10/19 03:31:55;;;;;;;36.53;15.25;;;;;;;4.81;100.00;102816.38;5035494;28;20079;-79
2022/10/19 03:34:20;;;;;;;30.95;13.90;;;;;;;4.70;100.00;102802.81;5035192;28;20432;-78
2022/10/19 03:36:46;;;;;;;27.20;13.63;;;;;;;4.76;100.00;102814.72;5035539;28;20037;-78
2022/10/19 03:39:13;;;;;;;33.05;14.82;;;;;;;4.50;100.00;102785.03;5035326;28;20036;-78
2022/10/19 03:41:39;;;;;;;26.85;13.85;;;;;;;4.69;100.00;102815.63;5017489;28;20052;-79
2022/10/19 03:44:06;;;;;;;39.03;14.80;;;;;;;4.73;100.00;102810.47;5035048;28;20026;-78
2022/10/19 03:46:31;;;;;;;36.20;14.40;;;;;;;4.73;100.00;102817.31;5035207;28;20022;-79
2022/10/19 03:48:58;;;;;;;43.63;15.73;;;;;;;4.75;100.00;102819.00;5034835;28;20021;-79
2022/10/19 03:51:26;;;;;;;35.90;15.65;;;;;;;4.69;100.00;102813.91;5035195;28;20045;-79
2022/10/19 03:53:58;;;;;;;30.63;14.35;;;;;;;4.66;100.00;102825.88;5034924;28;20037;-77
2022/10/19 03:56:25;;;;;;;35.50;15.98;;;;;;;4.79;100.00;102827.50;5034764;28;20036;-79
2022/10/19 03:58:52;;;;;;;40.08;16.25;;;;;;;4.75;100.00;102824.13;5035052;28;20042;-78
2022/10/19 04:01:35;;;;;;;40.03;15.10;;;;;;;4.56;100.00;102807.19;5034823;28;20045;-78
2022/10/19 04:04:03;;;;;;;29.98;14.82;;;;;;;4.60;100.00;102829.31;5034658;28;20382;-79
2022/10/19 04:06:31;;;;;;;28.08;13.68;;;;;;;4.59;100.00;102831.03;5034498;28;20026;-78
2022/10/19 04:08:57;;;;;;;31.90;15.18;;;;;;;4.57;100.00;102830.19;5034676;28;20029;-78
2022/10/19 04:11:26;;;;;;;31.75;14.18;;;;;;;4.50;100.00;102822.56;5034284;28;20041;-78
2022/10/19 04:13:56;;;;;;;31.25;14.20;;;;;;;4.57;100.00;102837.88;5034604;28;20040;-80
2022/10/19 04:16:23;;;;;;;31.73;13.98;;;;;;;4.37;100.00;102813.25;5034417;28;20457;-79
2022/10/19 04:18:49;;;;;;;31.75;14.63;;;;;;;4.48;100.00;102835.38;5034395;28;20029;-79
2022/10/19 04:21:29;;;;;;;32.55;14.43;;;;;;;4.53;100.00;102827.69;5034265;28;20041;-81
2022/10/19 04:24:04;;;;;;;30.35;13.60;;;;;;;4.46;100.00;102823.44;5033184;28;20442;-79
2022/10/19 04:26:29;;;;;;;30.85;13.93;;;;;;;4.50;100.00;102828.53;5034298;28;20025;-79
2022/10/19 04:28:59;;;;;;;29.90;14.07;;;;;;;4.48;100.00;102826.84;5034207;28;20021;-79
2022/10/19 04:31:25;;;;;;;30.73;14.57;;;;;;;4.19;100.00;102778.41;5034375;28;20029;-78
2022/10/19 04:33:50;;;;;;;30.75;14.10;;;;;;;4.34;100.00;102808.16;5034688;28;20368;-78
2022/10/19 04:36:15;;;;;;;27.35;13.38;;;;;;;4.21;100.00;102803.09;5033842;28;20112;-79
2022/10/19 04:38:41;;;;;;;32.08;14.48;;;;;;;4.40;100.00;102820.91;5033874;28;20113;-79
2022/10/19 04:41:09;;;;;;;31.48;14.38;;;;;;;4.44;100.00;102820.06;5033904;28;20104;-79
2022/10/19 04:43:35;;;;;;;28.70;14.80;;;;;;;4.37;100.00;102809.00;5034003;28;20079;-79
2022/10/19 04:46:06;;;;;;;32.08;14.93;;;;;;;4.47;100.00;102820.88;5033916;28;20026;-78
2022/10/19 04:48:33;;;;;;;34.65;14.63;;;;;;;4.38;100.00;102815.81;5033722;28;20021;-78
2022/10/19 04:50:58;;;;;;;38.75;14.77;;;;;;;4.22;100.00;102784.34;5033745;28;20025;-79
2022/10/19 04:53:24;;;;;;;35.08;15.07;;;;;;;4.37;100.00;102803.88;5033594;28;20029;-79
2022/10/19 04:55:49;;;;;;;32.25;14.40;;;;;;;4.49;100.00;102816.59;5033780;28;20033;-78
2022/10/19 04:58:15;;;;;;;27.75;14.18;;;;;;;4.40;100.00;102819.19;5033765;28;20013;-79
2022/10/19 05:00:40;;;;;;;32.95;15.27;;;;;;;4.34;100.00;102806.47;5033851;28;20033;-79
2022/10/19 05:03:05;;;;;;;32.03;14.80;;;;;;;4.21;100.00;102787.75;5033683;28;20028;-78
2022/10/19 05:05:32;;;;;;;37.45;15.07;;;;;;;4.42;100.00;102817.47;5033462;28;20025;-78
2022/10/19 05:07:57;;;;;;;32.15;14.15;;;;;;;4.09;100.00;102771.63;5033478;28;20029;-79
2022/10/19 05:10:23;;;;;;;29.75;13.38;;;;;;;4.36;100.00;102803.91;5033335;28;20076;-79
2022/10/19 05:12:48;;;;;;;34.28;15.93;;;;;;;4.48;100.00;102816.59;5033588;28;20032;-79
2022/10/19 05:15:16;;;;;;;36.38;16.00;;;;;;;4.45;100.00;102820.03;5033410;28;20049;-79
2022/10/19 05:17:42;;;;;;;29.05;14.32;;;;;;;4.35;100.00;102820.94;5033448;28;20030;-79
2022/10/19 05:20:09;;;;;;;29.20;15.02;;;;;;;4.44;100.00;102820.91;5033247;28;20028;-79
2022/10/19 05:22:34;;;;;;;36.10;15.77;;;;;;;4.38;100.00;102799.63;5033179;28;20033;-76
2022/10/19 05:24:59;;;;;;;34.42;16.42;;;;;;;4.43;100.00;102803.00;5033220;28;20076;-79
2022/10/19 05:27:24;;;;;;;46.25;16.92;;;;;;;4.40;100.00;102806.41;5033208;28;20419;-78
2022/10/19 05:29:50;;;;;;;37.90;16.15;;;;;;;4.36;100.00;102799.63;5033434;28;20045;-78
2022/10/19 05:32:15;;;;;;;36.90;16.65;;;;;;;4.41;100.00;102800.44;5033366;28;20072;-78
2022/10/19 05:34:40;;;;;;;38.35;15.82;;;;;;;4.44;100.00;102797.03;5033048;28;20029;-77
2022/10/19 05:37:06;;;;;;;32.03;16.30;;;;;;;4.39;100.00;102797.03;5033047;28;20025;-76
2022/10/19 05:39:31;;;;;;;32.97;15.55;;;;;;;4.36;100.00;102791.09;5032918;28;20032;-76
2022/10/19 05:41:56;;;;;;;38.15;16.00;;;;;;;4.07;100.00;102735.00;5033294;28;20026;-77
2022/10/19 05:44:22;;;;;;;36.67;15.73;;;;;;;4.30;100.00;102797.09;5033173;28;20477;-77
2022/10/19 05:46:49;;;;;;;40.40;16.85;;;;;;;4.35;100.00;102795.38;5033241;28;20025;-79
2022/10/19 05:49:16;;;;;;;42.30;18.55;;;;;;;4.35;100.00;102791.97;5033204;28;20033;-78
2022/10/19 05:51:42;;;;;;;38.85;16.98;;;;;;;4.33;100.00;102794.53;5033074;28;20025;-78
2022/10/19 05:54:09;;;;;;;40.90;17.17;;;;;;;4.25;100.00;102776.66;5015207;28;20028;-79
2022/10/19 05:56:34;;;;;;;37.30;16.60;;;;;;;4.36;100.00;102788.53;5033057;28;20108;-79
2022/10/19 05:59:02;;;;;;;42.00;15.98;;;;;;;4.11;100.00;102757.97;5033020;28;20025;-80
2022/10/19 06:01:29;;;;;;;32.75;15.05;;;;;;;4.27;100.00;102784.31;5032783;28;20029;-78
2022/10/19 06:03:56;;;;;;;38.33;15.48;;;;;;;4.26;100.00;102790.31;5033310;28;20377;-79
2022/10/19 06:06:22;;;;;;;38.83;17.83;;;;;;;4.32;100.00;102796.22;5032753;28;20049;-79
2022/10/19 06:08:48;;;;;;;36.83;17.42;;;;;;;4.36;100.00;102791.09;5032791;28;20109;-80
2022/10/19 06:11:18;;;;;;;38.75;16.77;;;;;;;4.27;100.00;102805.63;5032629;28;20049;-79
2022/10/19 06:13:46;;;;;;;37.58;16.25;;;;;;;4.05;100.00;102775.91;5032841;28;20048;-79
2022/10/19 06:16:13;;;;;;;41.95;18.10;;;;;;;3.83;100.00;102731.69;5032808;28;20021;-80
2022/10/19 06:18:39;;;;;;;29.10;14.50;;;;;;;4.10;100.00;102788.66;5032822;28;20055;-79
2022/10/19 06:21:07;;;;;;;33.63;16.45;;;;;;;4.22;100.00;102788.59;5032401;28;20089;-79
2022/10/19 06:23:34;;;;;;;41.80;17.48;;;;;;;4.11;100.00;102752.88;5032521;28;20416;-79
2022/10/19 06:26:03;;;;;;;41.17;17.55;;;;;;;4.26;100.00;102769.84;5032680;28;20033;-80
2022/10/19 06:28:28;;;;;;;41.65;18.17;;;;;;;4.05;100.00;102737.56;5032765;28;20049;-80
2022/10/19 06:30:56;;;;;;;43.70;18.85;;;;;;;4.38;100.00;102779.16;5031208;28;20461;-79
2022/10/19 06:33:21;;;;;;;43.58;19.15;;;;;;;4.40;100.00;102780.81;5032735;28;20075;-80
2022/10/19 06:35:47;;;;;;;46.90;21.20;;;;;;;4.40;100.00;102769.75;5032634;28;20034;-79
2022/10/19 06:38:12;;;;;;;52.15;23.17;;;;;;;4.46;100.00;102764.59;5032397;28;20033;-79
2022/10/19 06:40:38;;;;;;;48.63;20.38;;;;;;;4.60;100.00;102778.16;5032613;28;20030;-79
2022/10/19 06:43:03;;;;;;;51.88;24.02;;;;;;;4.68;100.00;102781.50;5031864;28;20021;-79
2022/10/19 06:45:29;;;;;;;62.72;23.73;;;;;;;4.68;100.00;102778.94;5032076;28;20026;-80
2022/10/19 06:47:54;;;;;;;54.10;23.52;;;;;;;4.77;100.00;102785.72;5035650;28;20030;-77
2022/10/19 06:50:19;;;;;;;56.72;24.85;;;;;;;4.83;100.00;102788.22;5036402;28;20164;-79
2022/10/19 06:52:45;;;;;;;60.13;27.52;;;;;;;4.85;100.00;102786.50;5036033;28;20057;-79
2022/10/19 06:55:11;;;;;;;56.08;25.23;;;;;;;4.83;100.00;102783.97;5035946;28;20112;-79
2022/10/19 06:57:36;;;;;;;57.55;24.27;;;;;;;4.78;100.00;102770.34;5036169;28;20025;-79
2022/10/19 07:00:03;;;;;;;59.55;26.20;;;;;;;5.01;100.00;102792.34;5034740;28;20022;-80
2022/10/19 07:02:29;;;;;;;55.22;25.23;;;;;;;5.07;100.00;102803.38;5035721;28;20466;-79
2022/10/19 07:04:54;;;;;;;55.65;25.10;;;;;;;5.08;100.00;102799.09;5034779;28;20040;-80
2022/10/19 07:07:19;;;;;;;61.17;26.58;;;;;;;5.13;100.00;102793.09;5035724;28;20025;-80
2022/10/19 07:09:47;;;;;;;61.03;26.38;;;;;;;5.19;100.00;102790.47;5034600;28;20029;-78
2022/10/19 07:12:12;;;;;;;70.15;28.77;;;;;;;5.10;100.00;102764.09;5053703;28;20045;-80
2022/10/19 07:14:38;;;;;;;72.70;29.45;;;;;;;5.24;100.00;102769.94;5055747;28;20113;-79
2022/10/19 07:17:05;;;;;;;81.70;32.35;;;;;;;5.32;100.00;102764.75;5055597;28;20078;-80
2022/10/19 07:19:31;;;;;;;80.47;32.95;;;;;;;5.29;100.00;102757.94;5055731;28;20021;-80
2022/10/19 07:21:57;;;;;;;82.20;32.20;;;;;;;5.53;100.00;102789.31;5055324;28;20103;-79
2022/10/19 07:24:22;;;;;;;81.28;33.90;;;;;;;5.52;100.00;102772.22;5055221;28;20036;-79
2022/10/19 07:26:47;;;;;;;80.50;32.60;;;;;;;5.61;100.00;102778.09;5055362;28;20053;-79
2022/10/19 07:29:13;;;;;;;90.03;36.30;;;;;;;5.81;100.00;102795.81;5055390;28;20120;-79
2022/10/19 07:31:38;;;;;;;93.88;36.05;;;;;;;5.89;100.00;102793.16;5037367;28;20514;-79
2022/10/19 07:34:04;;;;;;;94.45;37.83;;;;;;;5.97;100.00;102796.50;5055243;28;20025;-80
2022/10/19 07:36:32;;;;;;;97.40;37.10;;;;;;;6.05;100.00;102781.88;5037450;28;20568;-80
2022/10/19 07:38:59;;;;;;;85.03;38.15;;;;;;;6.11;100.00;102786.09;5054942;28;20021;-79
2022/10/19 07:41:25;;;;;;;94.57;38.60;;;;;;;6.13;100.00;102786.91;5055031;28;20396;-80
2022/10/19 07:43:52;;;;;;;97.47;40.03;;;;;;;6.13;100.00;102774.09;5055153;28;20029;-79
2022/10/19 07:46:20;;;;;;;94.28;40.10;;;;;;;6.06;100.00;102746.81;5053825;28;20032;-76
2022/10/19 07:48:46;;;;;;;109.90;43.17;;;;;;;6.36;100.00;102784.88;5055021;28;20032;-79
2022/10/19 07:51:13;;;;;;;92.93;41.72;;;;;;;6.54;100.00;102794.88;5054907;28;20029;-78
2022/10/19 07:53:39;;;;;;;89.57;41.83;;;;;;;6.64;100.00;102784.47;5054677;28;20036;-81
2022/10/19 07:56:09;;;;;;;98.40;40.80;;;;;;;6.70;100.00;102785.25;5036867;28;20025;-79
2022/10/19 07:58:35;;;;;;;93.20;41.40;;;;;;;6.59;100.00;102744.34;5054385;28;20020;-77
2022/10/19 08:01:03;;;;;;;91.20;40.75;;;;;;;6.86;100.00;102771.25;5054628;28;20025;-78
2022/10/19 08:03:28;;;;;;;86.32;38.55;;;;;;;6.85;100.00;102751.59;5036809;28;20163;-80
2022/10/19 08:06:01;;;;;;;81.88;37.72;;;;;;;7.03;100.00;102771.00;5054846;28;20104;-78
2022/10/19 08:08:28;;;;;;;76.70;36.60;;;;;;;7.14;100.00;102763.94;5054316;28;20051;-79
2022/10/19 08:10:53;;;;;;;96.40;39.25;;;;;;;7.15;100.00;102752.78;5054220;28;20053;-80
2022/10/19 08:13:19;;;;;;;77.72;37.60;;;;;;;7.30;100.00;102758.53;5054196;28;20112;-78
2022/10/19 08:15:44;;;;;;;71.60;37.35;;;;;;;7.35;100.00;102770.41;5054487;28;20022;-81
2022/10/19 08:18:10;;;;;;;68.63;32.92;;;;;;;7.39;100.00;102755.81;5054400;28;20025;-79
2022/10/19 08:20:36;;;;;;;72.07;34.10;;;;;;;7.41;100.00;102748.91;5054241;28;20064;-78
2022/10/19 08:23:01;;;;;;;79.50;35.33;;;;;;;7.40;100.00;102744.66;5054081;28;20132;-79
2022/10/19 08:25:27;;;;;;;72.30;32.20;;;;;;;7.48;100.00;102750.50;5054012;28;20071;-78
2022/10/19 08:27:52;;;;;;;67.97;33.45;;;;;;;7.58;100.00;102767.44;5054212;28;20031;-79
2022/10/19 08:30:17;;;;;;;69.28;31.42;;;;;;;7.74;100.00;102773.94;5054200;28;20025;-79
2022/10/19 08:32:43;;;;;;;68.55;31.92;;;;;;;7.76;100.00;102756.75;5054255;28;20039;-79
2022/10/19 08:35:08;;;;;;;75.80;34.90;;;;;;;7.78;100.00;102745.63;5036275;28;20534;-79
2022/10/19 08:37:33;;;;;;;63.50;30.17;;;;;;;7.95;100.00;102759.78;5054103;28;20020;-79
2022/10/19 08:39:59;;;;;;;61.83;28.15;;;;;;;7.89;100.00;102729.06;5053569;28;20048;-80
2022/10/19 08:42:56;;;;;;;66.57;28.33;;;;;;;8.15;100.00;102741.34;5053585;28;20040;-74
2022/10/19 08:45:28;;;;;;;58.55;27.13;;;;;;;8.23;100.00;102736.03;5052950;28;20443;-78
2022/10/19 08:48:27;;;;;;;54.17;26.20;;;;;;;8.26;100.00;102728.25;5053844;28;20029;-79
2022/10/19 08:50:54;;;;;;;53.30;26.05;;;;;;;8.32;100.00;102730.69;5053764;28;20032;-78
2022/10/19 08:53:30;;;;;;;52.30;26.17;;;;;;;8.42;100.00;102721.91;5053779;28;20025;-79
2022/10/19 08:56:14;;;;;;;55.25;23.80;;;;;;;8.54;100.00;102728.47;5035301;28;20396;-78
2022/10/19 08:58:47;;;;;;;56.20;24.85;;;;;;;8.56;100.00;102719.84;5053564;28;20025;-76
2022/10/19 09:01:38;;;;;;;50.03;22.50;;;;;;;8.64;100.00;102717.06;5053471;28;20550;-76
2022/10/19 09:04:11;;;;;;;46.03;22.70;;;;;;;8.70;100.00;102718.66;5053032;28;20045;-76
2022/10/19 09:07:02;;;;;;;39.58;21.48;;;;;;;8.75;100.00;102725.41;5053453;28;20021;-79
2022/10/19 09:09:29;;;;;;;50.83;21.75;;;;;;;8.83;100.00;102720.03;5034566;28;20484;-79
2022/10/19 09:12:00;;;;;;;52.83;22.83;;;;;;;8.82;100.00;102695.16;5053274;28;20511;-80
2022/10/19 09:14:55;;;;;;;39.13;20.95;;;;;;;8.96;100.00;102705.97;5053461;28;20096;-79
2022/10/19 09:17:20;;;;;;;46.58;20.92;;;;;;;9.10;100.00;102714.16;5053191;28;20481;-77
2022/10/19 09:19:46;;;;;;;39.72;17.40;;;;;;;9.06;100.00;102691.09;5053464;28;20017;-78
2022/10/19 09:22:28;;;;;;;34.53;15.95;;;;;;;9.25;100.00;102714.66;5053019;28;20024;-79
2022/10/19 09:24:59;;;;;;;34.83;15.63;;;;;;;9.19;100.00;102683.00;5052863;28;20044;-79
2022/10/19 09:27:32;;;;;;;35.17;14.75;;;;;;;9.30;100.00;102694.75;5053110;28;20021;-78
2022/10/19 09:30:14;;;;;;;31.67;13.48;;;;;;;9.52;100.00;102706.13;5053143;28;20029;-77
2022/10/19 09:32:39;;;;;;;;;;;;;;;9.57;100.00;102716.31;5053428;28;20020;-76
2022/10/19 09:35:13;;;;;;;30.40;14.05;;;;;;;9.51;100.00;102704.44;5053191;28;19920;-76
2022/10/19 09:37:44;;;;;;;32.80;12.32;;;;;;;9.54;100.00;102698.34;5052971;28;20075;-77
2022/10/19 09:40:17;;;;;;;30.10;12.02;;;;;;;9.72;100.00;102715.88;5052791;28;20070;-76
2022/10/19 09:42:43;;;;;;;33.00;13.55;;;;;;;9.69;100.00;102701.34;5052636;28;20037;-76
2022/10/19 09:45:18;;;;;;;26.58;11.27;;;;;;;9.61;100.00;102682.66;5052913;28;20075;-77
2022/10/19 09:47:47;;;;;;;27.02;11.82;;;;;;;9.79;100.00;102691.59;5053218;28;20420;-77
2022/10/19 09:50:28;;;;;;;30.77;11.43;;;;;;;9.91;100.00;102701.53;5053092;28;20025;-77
2022/10/19 09:53:04;;;;;;;28.63;11.10;;;;;;;10.01;100.00;102709.84;5052701;28;20072;-77
2022/10/19 09:55:42;;;;;;;26.77;10.18;;;;;;;10.00;100.00;102695.25;5052608;28;20075;-77
2022/10/19 09:58:15;;;;;;;26.80;9.68;;;;;;;10.20;100.00;102712.72;5052020;28;20483;-73
2022/10/19 10:00:44;;;;;;;25.13;9.57;;;;;;;10.23;100.00;102700.59;5053040;28;20465;-75
2022/10/19 10:03:22;;;;;;;29.30;7.93;;;;;;;10.34;100.00;102695.09;5052963;28;20021;-76
2022/10/19 10:05:48;;;;;;;28.15;7.75;;;;;;;10.24;100.00;102680.78;5052631;28;20029;-75
2022/10/19 10:08:17;;;;;;;22.13;8.50;;;;;;;10.26;97.88;102663.50;5052685;28;20036;-76
2022/10/19 10:10:46;;;;;;;22.08;7.20;;;;;;;10.49;99.70;102680.81;5052291;28;20098;-74
2022/10/19 10:13:19;;;;;;;27.15;7.78;;;;;;;10.43;98.83;102656.06;5052719;28;20108;-74
2022/10/19 10:15:54;;;;;;;23.23;8.32;;;;;;;10.63;99.88;102682.06;5052645;28;20374;-76
2022/10/19 10:18:22;;;;;;;22.42;8.00;;;;;;;10.72;96.63;102670.56;5052748;28;20416;-77
2022/10/19 10:21:12;;;;;;;22.30;7.57;;;;;;;10.79;97.57;102659.09;5041303;28;20057;-76
2022/10/19 10:23:37;;;;;;;23.33;7.47;;;;;;;10.87;96.79;102661.44;5035961;28;20030;-75
2022/10/19 10:26:13;;;;;;;25.27;8.57;;;;;;;10.95;94.70;102676.69;5036822;28;20079;-74
2022/10/19 10:28:46;;;;;;;19.42;7.50;;;;;;;11.06;96.10;102667.63;5036695;28;20028;-76
2022/10/19 10:31:12;;;;;;;20.33;7.45;;;;;;;11.12;95.52;102675.19;5036815;28;20104;-75
2022/10/19 10:33:37;;;;;;;22.30;7.13;;;;;;;11.18;94.50;102672.38;5036243;28;20574;-76
2022/10/19 10:36:10;;;;;;;22.42;7.43;;;;;;;11.09;94.82;102644.25;5036481;28;20524;-76
2022/10/19 10:38:44;;;;;;;21.17;7.05;;;;;;;11.27;93.23;102668.59;5036396;28;20025;-77
2022/10/19 10:41:14;;;;;;;23.67;7.32;;;;;;;11.26;91.97;102647.97;5017996;28;20041;-77
2022/10/19 10:43:57;;;;;;;26.40;7.85;;;;;;;11.37;92.22;102666.53;5036194;28;20029;-77
2022/10/19 10:46:32;;;;;;;18.85;6.75;;;;;;;11.35;92.43;102653.66;5036199;28;20541;-79
2022/10/19 10:49:01;;;;;;;20.77;7.40;;;;;;;11.40;91.06;102659.47;5036137;28;20018;-74
2022/10/19 10:51:38;;;;;;;15.98;6.93;;;;;;;11.43;91.90;102649.03;5036203;28;20028;-77
2022/10/19 10:54:25;;;;;;;16.70;6.53;;;;;;;11.46;92.37;102650.66;5036053;28;20117;-77
2022/10/19 10:57:14;;;;;;;20.75;6.75;;;;;;;11.49;90.72;102658.31;5035825;28;20048;-78
2022/10/19 10:59:39;;;;;;;20.20;7.03;;;;;;;11.52;91.07;102654.78;5018324;28;20458;-75
2022/10/19 11:02:15;;;;;;;23.88;7.03;;;;;;;11.55;91.84;102645.16;5035612;28;20039;-76
2022/10/19 11:04:47;;;;;;;19.15;6.28;;;;;;;11.62;90.31;102630.25;5018373;28;20380;-76
2022/10/19 11:07:22;;;;;;;19.42;5.75;;;;;;;11.67;90.66;102625.72;5035792;28;20021;-77
2022/10/19 11:10:01;;;;;;;20.90;6.60;;;;;;;11.67;90.62;102613.63;5017788;28;20474;-76
2022/10/19 11:12:40;;;;;;;21.05;6.60;;;;;;;11.61;88.90;102610.44;5035493;28;20103;-74
2022/10/19 11:15:43;;;;;;;36.38;7.05;;;;;;;11.72;89.79;102619.47;5035474;28;20057;-72
2022/10/19 11:18:32;;;;;;;21.92;6.82;;;;;;;11.78;90.40;102621.81;5017946;28;20041;-77